createdAt,value
2022-10-06T00:01:17.053Z,69.93
2022-10-06T00:03:45.067Z,82.80
2022-10-06T00:06:16.119Z,43.63
2022-10-06T00:08:46.981Z,73.00
2022-10-06T00:11:17.579Z,70.28
2022-10-06T00:13:45.473Z,64.05
2022-10-06T00:16:22.471Z,52.38
2022-10-06T00:18:50.495Z,56.05
2022-10-06T00:21:17.991Z,69.63
2022-10-06T00:23:45.712Z,56.13
2022-10-06T00:26:17.317Z,57.70
2022-10-06T00:28:47.783Z,41.78
2022-10-06T00:31:16.608Z,37.17
2022-10-06T00:33:44.110Z,34.00
2022-10-06T00:36:11.766Z,47.47
2022-10-06T00:38:39.163Z,36.22
2022-10-06T00:41:07.090Z,45.10
2022-10-06T00:44:00.144Z,30.70
2022-10-06T00:46:34.486Z,26.30
2022-10-06T00:49:19.112Z,30.40
2022-10-06T00:52:14.325Z,25.33
2022-10-06T00:54:42.836Z,28.08
2022-10-06T00:57:11.807Z,15.30
2022-10-06T00:59:44.527Z,18.10
2022-10-06T01:02:50.491Z,18.00
2022-10-06T01:05:27.343Z,20.45
2022-10-06T01:07:55.523Z,18.75
2022-10-06T01:10:23.079Z,22.92
2022-10-06T01:12:51.988Z,22.25
2022-10-06T01:15:21.775Z,22.73
2022-10-06T01:17:55.764Z,22.10
2022-10-06T01:20:23.664Z,22.95
2022-10-06T01:23:00.687Z,21.25
2022-10-06T01:25:28.592Z,23.13
2022-10-06T01:27:57.463Z,16.85
2022-10-06T01:30:39.006Z,18.38
2022-10-06T01:33:06.745Z,10.77
2022-10-06T01:35:34.061Z,18.73
2022-10-06T01:38:01.576Z,23.55
2022-10-06T01:40:29.501Z,22.30
2022-10-06T01:42:57.012Z,23.52
2022-10-06T01:45:24.453Z,24.30
2022-10-06T01:47:53.064Z,22.33
2022-10-06T01:50:20.390Z,23.15
2022-10-06T01:52:47.923Z,19.50
2022-10-06T01:55:15.466Z,24.30
2022-10-06T01:57:43.743Z,20.98
2022-10-06T02:00:12.113Z,31.80
2022-10-06T02:02:39.710Z,23.45
2022-10-06T02:05:07.761Z,32.58
2022-10-06T02:07:36.069Z,25.90
2022-10-06T02:10:05.666Z,16.50
2022-10-06T02:12:33.490Z,28.42
2022-10-06T02:15:01.146Z,22.02
2022-10-06T02:17:29.542Z,26.48
2022-10-06T02:19:57.021Z,26.30
2022-10-06T02:22:24.558Z,23.50
2022-10-06T02:24:52.067Z,25.38
2022-10-06T02:27:19.591Z,21.70
2022-10-06T02:29:49.391Z,27.05
2022-10-06T02:32:16.884Z,15.63
2022-10-06T02:34:44.879Z,22.65
2022-10-06T02:37:13.487Z,18.15
2022-10-06T02:39:40.896Z,15.68
2022-10-06T02:42:08.312Z,16.45
2022-10-06T02:44:36.168Z,11.10
2022-10-06T02:47:03.941Z,13.05
2022-10-06T02:49:32.167Z,15.05
2022-10-06T02:51:59.473Z,16.00
2022-10-06T02:54:26.799Z,14.15
2022-10-06T02:56:54.299Z,11.00
2022-10-06T02:59:21.766Z,16.10
2022-10-06T03:01:49.330Z,10.38
2022-10-06T03:04:16.940Z,13.35
2022-10-06T03:06:44.374Z,10.10
2022-10-06T03:09:12.412Z,16.17
2022-10-06T03:11:42.792Z,13.35
2022-10-06T03:14:11.414Z,17.55
2022-10-06T03:16:40.927Z,10.70
2022-10-06T03:19:09.384Z,15.60
2022-10-06T03:21:42.226Z,15.52
2022-10-06T03:24:10.703Z,11.02
2022-10-06T03:26:41.411Z,10.18
2022-10-06T03:29:11.473Z,14.15
2022-10-06T03:31:40.011Z,13.52
2022-10-06T03:34:07.633Z,14.15
2022-10-06T03:36:35.342Z,12.10
2022-10-06T03:39:05.035Z,11.95
2022-10-06T03:41:37.420Z,15.88
2022-10-06T03:44:05.335Z,12.57
2022-10-06T03:46:34.796Z,12.35
2022-10-06T03:49:05.502Z,13.45
2022-10-06T03:51:38.264Z,13.57
2022-10-06T03:54:08.093Z,17.08
2022-10-06T03:56:38.269Z,14.38
2022-10-06T03:59:08.303Z,16.67
2022-10-06T04:01:44.490Z,13.45
2022-10-06T04:04:12.993Z,16.88
2022-10-06T04:06:42.952Z,16.23
2022-10-06T04:09:15.699Z,16.13
2022-10-06T04:11:45.120Z,15.57
2022-10-06T04:14:15.664Z,17.70
2022-10-06T04:16:47.698Z,15.70
2022-10-06T04:19:16.444Z,13.48
2022-10-06T04:21:46.289Z,13.98
2022-10-06T04:24:13.995Z,20.05
2022-10-06T04:26:49.108Z,14.15
2022-10-06T04:29:16.658Z,14.48
2022-10-06T04:31:44.265Z,13.70
2022-10-06T04:34:15.569Z,13.38
2022-10-06T04:36:43.608Z,12.75
2022-10-06T04:39:12.199Z,17.67
2022-10-06T04:41:41.814Z,17.83
2022-10-06T04:44:09.338Z,15.63
2022-10-06T04:46:45.000Z,16.75
2022-10-06T04:49:21.002Z,13.55
2022-10-06T04:51:52.454Z,17.15
2022-10-06T04:54:20.254Z,13.57
2022-10-06T04:56:47.608Z,14.32
2022-10-06T04:59:15.132Z,12.95
2022-10-06T05:01:42.894Z,15.13
2022-10-06T05:04:10.227Z,17.58
2022-10-06T05:06:41.419Z,13.45
2022-10-06T05:09:11.773Z,13.23
2022-10-06T05:11:39.754Z,15.88
2022-10-06T05:14:07.534Z,15.00
2022-10-06T05:16:40.424Z,18.00
2022-10-06T05:19:08.726Z,15.57
2022-10-06T05:21:36.717Z,18.88
2022-10-06T05:27:01.517Z,19.80
2022-10-06T05:29:29.182Z,15.68
2022-10-06T05:31:56.776Z,18.70
2022-10-06T05:34:24.655Z,22.90
2022-10-06T05:36:52.305Z,17.35
2022-10-06T05:39:19.781Z,13.95
2022-10-06T05:41:48.635Z,18.55
2022-10-06T05:44:17.256Z,22.45
2022-10-06T05:46:45.029Z,15.27
2022-10-06T05:49:13.717Z,14.13
2022-10-06T05:51:41.313Z,14.52
2022-10-06T05:54:08.852Z,9.60
2022-10-06T05:56:38.154Z,12.48
2022-10-06T05:59:07.093Z,14.52
2022-10-06T06:01:45.438Z,13.43
2022-10-06T06:04:14.541Z,12.95
2022-10-06T06:06:46.814Z,12.82
2022-10-06T06:09:18.249Z,11.65
2022-10-06T06:11:51.983Z,9.77
2022-10-06T06:14:46.192Z,15.57
2022-10-06T06:17:14.194Z,15.15
2022-10-06T06:19:43.211Z,15.75
2022-10-06T06:22:11.040Z,10.93
2022-10-06T06:24:39.149Z,10.13
2022-10-06T06:27:06.690Z,13.88
2022-10-06T06:29:35.200Z,15.95
2022-10-06T06:32:02.824Z,9.25
2022-10-06T06:34:31.010Z,11.85
2022-10-06T06:37:05.299Z,14.10
2022-10-06T06:39:34.609Z,12.75
2022-10-06T06:42:02.821Z,10.80
2022-10-06T06:44:31.108Z,13.75
2022-10-06T06:47:04.117Z,11.30
2022-10-06T06:49:32.256Z,17.33
2022-10-06T06:52:00.811Z,11.90
2022-10-06T06:54:28.716Z,14.27
2022-10-06T06:56:57.090Z,12.05
2022-10-06T06:59:43.823Z,11.82
2022-10-06T07:02:12.335Z,17.67
2022-10-06T07:04:40.363Z,14.25
2022-10-06T07:07:11.999Z,15.43
2022-10-06T07:09:42.494Z,16.45
2022-10-06T07:12:11.740Z,14.55
2022-10-06T07:14:59.936Z,13.95
2022-10-06T07:17:46.766Z,13.15
2022-10-06T07:20:33.273Z,16.55
2022-10-06T07:23:19.560Z,18.92
2022-10-06T07:25:47.769Z,19.85
2022-10-06T07:28:17.169Z,17.73
2022-10-06T07:30:45.138Z,17.42
2022-10-06T07:33:12.768Z,12.15
2022-10-06T07:35:41.416Z,19.55
2022-10-06T07:38:09.871Z,21.15
2022-10-06T07:41:19.475Z,15.50
2022-10-06T07:43:48.539Z,21.27
2022-10-06T07:46:16.614Z,19.45
2022-10-06T07:48:47.001Z,22.92
2022-10-06T07:51:19.441Z,21.88
2022-10-06T07:53:51.147Z,21.13
2022-10-06T07:56:20.686Z,25.75
2022-10-06T07:58:49.709Z,26.65
2022-10-06T08:01:21.237Z,22.42
2022-10-06T08:03:51.075Z,16.83
2022-10-06T08:06:19.980Z,21.40
2022-10-06T08:08:52.711Z,20.98
2022-10-06T08:11:22.813Z,15.82
2022-10-06T08:13:52.277Z,9.05
2022-10-06T08:16:22.761Z,15.25
2022-10-06T08:18:53.798Z,14.13
2022-10-06T08:21:34.224Z,19.55
2022-10-06T08:24:05.460Z,15.57
2022-10-06T08:26:42.956Z,13.68
2022-10-06T08:29:11.446Z,12.85
2022-10-06T08:31:43.324Z,12.10
2022-10-06T08:34:13.092Z,7.97
2022-10-06T08:36:44.959Z,12.52
2022-10-06T08:39:21.970Z,15.18
2022-10-06T08:41:54.991Z,12.05
2022-10-06T08:44:55.010Z,17.10
2022-10-06T08:47:26.330Z,16.08
2022-10-06T08:49:56.708Z,15.80
2022-10-06T08:53:10.080Z,15.32
2022-10-06T08:55:53.680Z,11.50
2022-10-06T08:58:35.237Z,10.50
2022-10-06T09:01:26.307Z,12.18
2022-10-06T09:03:58.368Z,11.35
2022-10-06T09:06:38.449Z,9.80
2022-10-06T09:09:16.000Z,3.58
2022-10-06T09:12:07.620Z,5.25
2022-10-06T09:14:43.494Z,8.68
2022-10-06T09:17:17.732Z,6.82
2022-10-06T09:19:57.991Z,5.82
2022-10-06T09:22:31.138Z,5.65
2022-10-06T09:25:34.568Z,4.80
2022-10-06T09:28:03.523Z,5.20
2022-10-06T09:30:31.726Z,4.68
2022-10-06T09:33:08.205Z,6.90
2022-10-06T09:35:56.120Z,6.65
2022-10-06T09:38:25.236Z,5.35
2022-10-06T09:40:54.859Z,6.78
2022-10-06T09:43:29.024Z,8.00
2022-10-06T09:46:19.634Z,9.65
2022-10-06T09:49:10.154Z,13.32
2022-10-06T09:54:21.533Z,8.88
2022-10-06T09:56:57.199Z,13.18
2022-10-06T09:59:40.330Z,10.88
2022-10-06T10:05:51.306Z,11.48
2022-10-06T10:08:28.476Z,12.27
2022-10-06T10:14:54.257Z,10.93
2022-10-06T10:21:15.476Z,12.05
2022-10-06T10:24:09.518Z,11.77
2022-10-06T10:26:59.873Z,8.02
2022-10-06T10:29:56.054Z,9.93
2022-10-06T10:32:56.587Z,8.40
2022-10-06T10:35:36.357Z,6.10
2022-10-06T10:38:28.302Z,6.68
2022-10-06T10:41:37.746Z,8.77
2022-10-06T10:44:28.337Z,10.00
2022-10-06T10:50:53.394Z,5.95
2022-10-06T10:53:26.562Z,8.55
2022-10-06T10:55:56.907Z,6.20
2022-10-06T10:58:28.973Z,5.72
2022-10-06T11:01:06.979Z,5.35
2022-10-06T11:03:35.164Z,5.35
2022-10-06T11:06:28.607Z,8.50
2022-10-06T11:09:38.996Z,7.25
2022-10-06T11:12:28.656Z,6.20
2022-10-06T11:15:05.232Z,3.65
2022-10-06T11:17:47.535Z,6.35
2022-10-06T11:20:44.465Z,3.25
2022-10-06T11:24:17.473Z,3.35
2022-10-06T11:27:16.820Z,2.95
2022-10-06T11:30:37.731Z,4.40
2022-10-06T11:36:58.183Z,3.45
2022-10-06T11:42:41.931Z,1.13
2022-10-06T11:45:33.523Z,0.95
2022-10-06T11:48:23.700Z,1.17
2022-10-06T11:50:55.685Z,2.25
2022-10-06T11:53:32.704Z,4.28
2022-10-06T11:56:21.305Z,1.27
2022-10-06T11:58:51.787Z,0.50
2022-10-06T12:01:31.432Z,0.70
2022-10-06T12:04:11.023Z,2.58
2022-10-06T12:06:45.040Z,2.08
2022-10-06T12:09:52.283Z,2.20
2022-10-06T12:12:21.224Z,1.45
2022-10-06T12:16:55.321Z,0.65
2022-10-06T12:18:04.081Z,0.30
2022-10-06T12:20:43.485Z,0.40
2022-10-06T12:23:40.436Z,0.95
2022-10-06T12:26:23.734Z,0.68
2022-10-06T12:29:26.599Z,1.00
2022-10-06T12:32:30.475Z,0.52
2022-10-06T12:35:03.482Z,0.55
2022-10-06T12:37:54.557Z,0.57
2022-10-06T12:40:41.392Z,0.82
2022-10-06T12:43:15.185Z,0.40
2022-10-06T12:45:46.544Z,2.28
2022-10-06T12:48:26.918Z,3.38
2022-10-06T12:51:13.331Z,0.50
2022-10-06T12:53:50.981Z,0.70
2022-10-06T12:56:36.390Z,0.43
2022-10-06T12:59:23.314Z,1.00
2022-10-06T13:01:53.584Z,3.20
2022-10-06T13:05:01.204Z,1.58
2022-10-06T13:07:33.958Z,0.73
2022-10-06T13:10:19.595Z,1.75
2022-10-06T13:12:50.530Z,1.00
2022-10-06T13:15:24.182Z,0.70
2022-10-06T13:17:53.662Z,0.52
2022-10-06T13:20:42.765Z,0.82
2022-10-06T13:23:30.254Z,1.38
2022-10-06T13:25:58.778Z,1.08
2022-10-06T13:28:30.873Z,0.50
2022-10-06T13:31:17.755Z,0.45
2022-10-06T13:33:48.677Z,1.85
2022-10-06T13:36:17.319Z,0.40
2022-10-06T13:38:45.770Z,1.80
2022-10-06T13:41:32.485Z,0.50
2022-10-06T13:44:06.498Z,0.70
2022-10-06T13:46:41.211Z,0.28
2022-10-06T13:49:21.507Z,1.20
2022-10-06T13:51:52.368Z,0.95
2022-10-06T13:54:46.536Z,3.85
2022-10-06T13:57:32.853Z,0.52
2022-10-06T14:00:22.238Z,1.80
2022-10-06T14:02:55.428Z,2.30
2022-10-06T14:05:27.818Z,1.05
2022-10-06T14:08:01.351Z,2.22
2022-10-06T14:10:55.442Z,2.42
2022-10-06T14:13:28.152Z,1.23
2022-10-06T14:15:58.603Z,0.57
2022-10-06T14:18:47.003Z,0.70
2022-10-06T14:21:39.950Z,0.60
2022-10-06T14:24:16.398Z,1.58
2022-10-06T14:26:45.532Z,0.40
2022-10-06T14:29:17.262Z,2.85
2022-10-06T14:31:45.789Z,1.85
2022-10-06T14:34:15.588Z,1.75
2022-10-06T14:36:45.889Z,1.05
2022-10-06T14:39:15.017Z,1.35
2022-10-06T14:41:42.545Z,1.95
2022-10-06T14:44:12.545Z,3.65
2022-10-06T14:46:41.566Z,2.63
2022-10-06T14:49:11.419Z,4.22
2022-10-06T14:51:40.133Z,2.83
2022-10-06T14:54:08.454Z,1.92
2022-10-06T14:56:37.994Z,1.85
2022-10-06T14:59:08.158Z,1.30
2022-10-06T15:01:37.971Z,3.22
2022-10-06T15:04:08.322Z,4.15
2022-10-06T15:06:54.428Z,3.22
2022-10-06T15:09:21.941Z,4.53
2022-10-06T15:11:50.040Z,4.60
2022-10-06T15:14:17.683Z,3.60
2022-10-06T15:16:45.166Z,1.40
2022-10-06T15:19:13.708Z,3.95
2022-10-06T15:21:45.544Z,3.45
2022-10-06T15:24:19.080Z,3.30
2022-10-06T15:27:06.196Z,7.70
2022-10-06T15:29:35.322Z,2.63
2022-10-06T15:32:04.319Z,3.97
2022-10-06T15:34:34.588Z,3.92
2022-10-06T15:37:02.469Z,3.83
2022-10-06T15:39:34.060Z,7.57
2022-10-06T15:42:01.826Z,4.35
2022-10-06T15:44:32.768Z,2.78
2022-10-06T15:47:00.236Z,4.35
2022-10-06T15:49:33.156Z,6.22
2022-10-06T15:52:03.684Z,7.82
2022-10-06T15:54:43.871Z,6.63
2022-10-06T15:57:17.870Z,4.45
2022-10-06T15:59:47.412Z,8.52
2022-10-06T16:02:17.278Z,2.35
2022-10-06T16:04:55.624Z,3.10
2022-10-06T16:07:23.230Z,6.15
2022-10-06T16:09:52.008Z,5.32
2022-10-06T16:12:21.930Z,4.80
2022-10-06T16:14:49.530Z,3.88
2022-10-06T16:17:18.190Z,4.15
2022-10-06T16:19:47.127Z,7.25
2022-10-06T16:22:19.390Z,5.35
2022-10-06T16:24:47.895Z,5.90
2022-10-06T16:27:16.078Z,6.05
2022-10-06T16:29:44.248Z,5.53
2022-10-06T16:32:11.897Z,1.75
2022-10-06T16:34:39.305Z,3.92
2022-10-06T16:37:06.721Z,5.53
2022-10-06T16:39:34.239Z,4.75
2022-10-06T16:42:01.778Z,4.20
2022-10-06T16:44:29.204Z,3.75
2022-10-06T16:46:56.821Z,5.63
2022-10-06T16:49:24.731Z,9.38
2022-10-06T16:51:52.223Z,7.13
2022-10-06T16:54:20.959Z,12.95
2022-10-06T16:56:53.964Z,7.95
2022-10-06T16:59:23.213Z,5.07
2022-10-06T17:01:51.123Z,4.95
2022-10-06T17:04:23.923Z,6.10
2022-10-06T17:06:56.261Z,7.30
2022-10-06T17:09:26.341Z,4.82
2022-10-06T17:11:59.206Z,6.05
2022-10-06T17:14:28.359Z,3.92
2022-10-06T17:16:58.550Z,7.60
2022-10-06T17:19:28.688Z,5.80
2022-10-06T17:21:59.426Z,5.22
2022-10-06T17:24:28.683Z,10.13
2022-10-06T17:26:57.612Z,4.78
2022-10-06T17:29:26.086Z,4.70
2022-10-06T17:31:59.141Z,4.63
2022-10-06T17:34:32.249Z,5.03
2022-10-06T17:37:01.911Z,5.47
2022-10-06T17:39:29.527Z,2.80
2022-10-06T17:41:57.057Z,7.18
2022-10-06T17:44:27.542Z,2.63
2022-10-06T17:47:00.471Z,5.25
2022-10-06T17:49:30.590Z,6.22
2022-10-06T17:51:58.213Z,5.10
2022-10-06T17:54:27.389Z,7.68
2022-10-06T17:56:56.957Z,3.63
2022-10-06T17:59:30.702Z,5.55
2022-10-06T18:02:01.447Z,4.70
2022-10-06T18:04:29.108Z,3.55
2022-10-06T18:06:57.505Z,6.93
2022-10-06T18:09:25.422Z,5.38
2022-10-06T18:11:56.276Z,6.15
2022-10-06T18:14:26.535Z,2.35
2022-10-06T18:17:00.823Z,6.25
2022-10-06T18:19:34.140Z,6.10
2022-10-06T18:22:05.340Z,3.05
2022-10-06T18:24:32.817Z,6.32
2022-10-06T18:27:01.817Z,4.97
2022-10-06T18:29:32.185Z,3.60
2022-10-06T18:32:24.068Z,4.68
2022-10-06T18:37:35.306Z,4.90
2022-10-06T18:40:06.309Z,7.80
2022-10-06T18:42:34.050Z,4.00
2022-10-06T18:45:20.271Z,5.03
2022-10-06T18:48:06.301Z,7.10
2022-10-06T18:50:35.378Z,7.15
2022-10-06T18:53:04.861Z,4.47
2022-10-06T18:55:32.479Z,9.88
2022-10-06T18:57:59.999Z,9.93
2022-10-06T19:00:27.703Z,4.53
2022-10-06T19:02:56.997Z,8.27
2022-10-06T19:05:24.807Z,5.82
2022-10-06T19:07:55.854Z,5.65
2022-10-06T19:10:23.328Z,7.22
2022-10-06T19:12:50.901Z,4.40
2022-10-06T19:15:21.115Z,4.03
2022-10-06T19:17:50.138Z,7.38
2022-10-06T19:20:18.874Z,6.63
2022-10-06T19:22:47.881Z,8.73
2022-10-06T19:25:18.975Z,6.07
2022-10-06T19:27:46.966Z,4.45
2022-10-06T19:30:14.941Z,8.15
2022-10-06T19:32:43.994Z,6.68
2022-10-06T19:35:11.507Z,8.32
2022-10-06T19:37:39.148Z,4.00
2022-10-06T19:40:08.936Z,8.60
2022-10-06T19:42:48.560Z,6.57
2022-10-06T19:45:17.528Z,9.48
2022-10-06T19:47:46.717Z,10.18
2022-10-06T19:50:16.388Z,8.73
2022-10-06T19:52:43.870Z,7.95
2022-10-06T19:55:11.247Z,9.32
2022-10-06T19:57:38.646Z,6.65
2022-10-06T20:00:07.440Z,9.82
2022-10-06T20:02:37.485Z,5.55
2022-10-06T20:05:09.120Z,8.80
2022-10-06T20:07:37.958Z,7.18
2022-10-06T20:10:05.849Z,10.27
2022-10-06T20:12:35.175Z,8.68
2022-10-06T20:15:02.618Z,9.60
2022-10-06T20:17:30.029Z,10.98
2022-10-06T20:19:58.187Z,6.72
2022-10-06T20:22:26.908Z,7.78
2022-10-06T20:24:54.448Z,8.18
2022-10-06T20:27:22.308Z,11.02
2022-10-06T20:29:49.817Z,7.38
2022-10-06T20:32:17.247Z,10.05
2022-10-06T20:34:44.974Z,7.47
2022-10-06T20:37:12.421Z,6.38
2022-10-06T20:39:58.508Z,10.82
2022-10-06T20:42:28.228Z,10.02
2022-10-06T20:44:55.615Z,6.50
2022-10-06T20:47:23.572Z,6.05
2022-10-06T20:49:55.409Z,9.15
2022-10-06T20:52:24.341Z,9.68
2022-10-06T20:54:52.301Z,6.10
2022-10-06T20:57:20.193Z,5.28
2022-10-06T20:59:48.051Z,6.80
2022-10-06T21:02:15.515Z,7.60
2022-10-06T21:04:43.767Z,8.52
2022-10-06T21:07:11.682Z,10.68
2022-10-06T21:09:39.517Z,8.75
2022-10-06T21:12:07.181Z,7.32
2022-10-06T21:14:35.515Z,5.95
2022-10-06T21:17:03.493Z,3.97
2022-10-06T21:19:31.680Z,5.97
2022-10-06T21:22:01.130Z,8.45
2022-10-06T21:24:28.584Z,7.55
2022-10-06T21:26:56.182Z,7.80
2022-10-06T21:29:24.020Z,7.72
2022-10-06T21:31:51.604Z,8.02
2022-10-06T21:34:19.484Z,8.23
2022-10-06T21:36:46.990Z,3.70
2022-10-06T21:39:14.474Z,6.75
2022-10-06T21:41:42.554Z,9.25
2022-10-06T21:44:18.332Z,7.65
2022-10-06T21:46:47.258Z,2.95
2022-10-06T21:49:17.596Z,6.97
2022-10-06T21:51:46.935Z,4.65
2022-10-06T21:54:15.140Z,4.80
2022-10-06T21:56:42.845Z,5.55
2022-10-06T21:59:11.315Z,11.35
2022-10-06T22:01:41.339Z,6.10
2022-10-06T22:04:09.498Z,5.05
2022-10-06T22:06:37.646Z,5.75
2022-10-06T22:09:07.431Z,9.55
2022-10-06T22:11:38.319Z,6.70
2022-10-06T22:14:09.074Z,6.25
2022-10-06T22:16:38.256Z,10.18
2022-10-06T22:19:08.431Z,7.55
2022-10-06T22:21:44.650Z,8.93
2022-10-06T22:24:18.328Z,11.02
2022-10-06T22:26:46.401Z,11.35
2022-10-06T22:29:16.234Z,10.88
2022-10-06T22:31:45.823Z,5.10
2022-10-06T22:34:15.469Z,10.95
2022-10-06T22:36:43.335Z,9.88
2022-10-06T22:39:11.031Z,11.05
2022-10-06T22:41:38.963Z,5.25
2022-10-06T22:44:06.807Z,9.32
2022-10-06T22:46:37.048Z,9.68
2022-10-06T22:49:05.397Z,10.23
2022-10-06T22:51:35.841Z,7.93
2022-10-06T22:54:03.541Z,8.88
2022-10-06T22:56:33.486Z,9.85
2022-10-06T22:59:01.199Z,10.73
2022-10-06T23:01:29.716Z,14.65
2022-10-06T23:03:57.812Z,7.40
2022-10-06T23:06:26.538Z,10.50
2022-10-06T23:08:54.490Z,9.07
2022-10-06T23:11:22.381Z,8.95
2022-10-06T23:13:50.806Z,5.18
2022-10-06T23:16:19.958Z,12.75
2022-10-06T23:18:48.765Z,12.02
2022-10-06T23:21:21.830Z,9.98
2022-10-06T23:23:52.420Z,11.70
2022-10-06T23:26:20.813Z,13.07
2022-10-06T23:28:53.760Z,8.45
2022-10-06T23:31:21.599Z,12.10
2022-10-06T23:33:49.417Z,14.20
2022-10-06T23:36:18.081Z,8.60
2022-10-06T23:38:46.255Z,10.27
2022-10-06T23:41:14.165Z,14.88
2022-10-06T23:43:41.757Z,8.40
2022-10-06T23:46:09.480Z,12.73
2022-10-06T23:48:37.681Z,8.50
2022-10-06T23:51:13.730Z,10.70
2022-10-06T23:53:42.043Z,12.93
2022-10-06T23:56:10.698Z,11.35
2022-10-06T23:58:38.884Z,14.82
